Time;durP1;ratioP1;P1;durP2;ratioP2;P2;SDS_P1;SDS_P2;PMS_P1;PMS_P2;Temp;Humidity;BMP_temperature;BMP_pressure;BME280_temperature;BME280_humidity;BME280_pressure;Samples;Min_cycle;Max_cycle;Signal;HPM_P1;HPM_P2
2023/05/19 00:01:27;;;;;;;13.93;7.43;;;8.20;99.90;;;;;;4950038;29;20195;-70
2023/05/19 00:03:56;;;;;;;18.27;8.10;;;8.20;99.90;;;;;;4939980;28;20538;-70
2023/05/19 00:06:30;;;;;;;19.03;7.90;;;8.20;99.90;;;;;;4958377;28;20061;-70
2023/05/19 00:08:58;;;;;;;14.63;7.70;;;8.20;99.90;;;;;;4951670;28;20110;-70
2023/05/19 00:11:25;;;;;;;18.47;7.90;;;8.20;99.90;;;;;;4944458;28;20043;-69
2023/05/19 00:13:53;;;;;;;15.23;8.00;;;8.20;99.90;;;;;;4944801;28;20081;-70
2023/05/19 00:16:19;;;;;;;20.00;8.17;;;8.10;99.90;;;;;;4967944;28;20503;-70
2023/05/19 00:18:46;;;;;;;16.37;8.20;;;8.10;99.90;;;;;;4945595;28;20097;-70
2023/05/19 00:21:12;;;;;;;14.83;8.17;;;8.10;99.90;;;;;;4986428;28;20050;-70
2023/05/19 00:23:37;;;;;;;19.97;8.70;;;8.10;99.90;;;;;;4947433;28;20050;-70
2023/05/19 00:26:03;;;;;;;16.80;8.40;;;8.10;99.90;;;;;;4979149;28;20045;-70
2023/05/19 00:28:29;;;;;;;17.57;8.57;;;8.10;99.90;;;;;;4957619;28;20085;-70
2023/05/19 00:30:55;;;;;;;17.03;8.80;;;8.10;99.90;;;;;;4959545;28;20046;-69
2023/05/19 00:33:21;;;;;;;16.43;8.43;;;8.10;99.90;;;;;;4965951;28;20058;-70
2023/05/19 00:35:47;;;;;;;17.63;7.80;;;8.10;99.90;;;;;;4939899;28;20086;-70
2023/05/19 00:38:12;;;;;;;20.53;8.77;;;8.10;99.90;;;;;;4956582;28;20061;-70
2023/05/19 00:40:38;;;;;;;21.53;9.30;;;8.00;99.90;;;;;;4926036;28;20057;-69
2023/05/19 00:43:09;;;;;;;18.17;8.70;;;8.00;99.90;;;;;;4959049;28;20051;-70
2023/05/19 00:45:35;;;;;;;19.70;9.25;;;8.00;99.90;;;;;;4942142;28;20051;-70
2023/05/19 00:48:01;;;;;;;16.10;8.50;;;8.00;99.90;;;;;;4958051;28;20090;-69
2023/05/19 00:50:27;;;;;;;20.07;8.27;;;8.00;99.90;;;;;;4957897;28;20080;-69
2023/05/19 00:52:56;;;;;;;14.73;7.70;;;8.00;99.90;;;;;;4957652;28;20102;-70
2023/05/19 00:55:29;;;;;;;19.10;8.30;;;8.00;99.90;;;;;;4941708;28;20115;-70
2023/05/19 00:57:57;;;;;;;16.47;8.20;;;8.00;99.90;;;;;;4954685;29;20039;-70
2023/05/19 01:00:23;;;;;;;18.10;7.70;;;8.00;99.90;;;;;;4952170;28;20149;-70
2023/05/19 01:02:49;;;;;;;17.03;8.37;;;8.00;99.90;;;;;;4950849;28;20074;-70
2023/05/19 01:05:16;;;;;;;17.60;8.07;;;8.00;99.90;;;;;;4956258;28;20078;-70
2023/05/19 01:07:42;;;;;;;16.90;8.10;;;8.00;99.90;;;;;;4957821;28;20051;-70
2023/05/19 01:10:08;;;;;;;17.47;8.03;;;8.00;99.90;;;;;;4959176;28;20912;-70
2023/05/19 01:12:35;;;;;;;20.23;8.83;;;8.00;99.90;;;;;;4937312;28;20057;-70
2023/05/19 01:15:02;;;;;;;15.47;8.20;;;7.90;99.90;;;;;;4976262;28;20049;-69
2023/05/19 01:17:54;;;;;;;17.83;7.97;;;7.90;99.90;;;;;;4954123;28;20107;-70
2023/05/19 01:20:34;;;;;;;17.70;7.97;;;7.80;99.90;;;;;;4935277;28;20645;-70
2023/05/19 01:23:22;;;;;;;20.90;8.10;;;7.90;99.90;;;;;;4959176;28;20050;-69
2023/05/19 01:25:57;;;;;;;16.73;8.13;;;7.80;99.90;;;;;;4948165;28;20074;-70
2023/05/19 01:28:38;;;;;;;22.97;8.37;;;7.80;99.90;;;;;;4937759;28;20062;-70
2023/05/19 01:31:06;;;;;;;17.40;8.70;;;7.80;99.90;;;;;;4965974;28;20046;-70
2023/05/19 01:33:32;;;;;;;17.83;8.17;;;7.80;99.90;;;;;;4949996;28;20059;-70
2023/05/19 01:36:02;;;;;;;19.93;8.00;;;7.80;99.90;;;;;;4958894;28;20054;-70
2023/05/19 01:38:29;;;;;;;20.00;8.33;;;7.70;99.90;;;;;;4973929;28;20046;-70
2023/05/19 01:40:56;;;;;;;17.17;7.67;;;7.70;99.90;;;;;;4927163;28;20039;-70
2023/05/19 01:43:25;;;;;;;16.53;7.90;;;7.70;99.90;;;;;;4957202;28;20046;-69
2023/05/19 01:45:51;;;;;;;13.83;7.67;;;7.70;99.90;;;;;;4977667;28;20051;-69
2023/05/19 01:48:18;;;;;;;18.77;8.77;;;7.70;99.90;;;;;;4942654;28;20121;-70
2023/05/19 01:50:45;;;;;;;18.93;7.57;;;7.70;99.90;;;;;;4976664;28;20055;-70
2023/05/19 01:53:11;;;;;;;19.70;8.77;;;7.70;99.90;;;;;;4958635;28;20430;-70
2023/05/19 01:55:47;;;;;;;18.23;7.13;;;7.70;99.90;;;;;;4935811;28;20047;-70
2023/05/19 01:58:33;;;;;;;16.00;7.37;;;7.70;99.90;;;;;;4950630;28;20045;-70
2023/05/19 02:01:08;;;;;;;16.20;7.87;;;7.70;99.90;;;;;;4939344;28;20046;-70
2023/05/19 02:04:11;;;;;;;18.50;8.07;;;7.70;99.90;;;;;;4942127;28;20395;-70
2023/05/19 02:07:02;;;;;;;19.43;7.93;;;7.70;99.90;;;;;;4939684;28;20054;-70
2023/05/19 02:09:34;;;;;;;15.97;7.60;;;7.70;99.90;;;;;;4956748;28;20035;-70
2023/05/19 02:12:01;;;;;;;;;;;7.70;99.90;;;;;;4966060;28;20559;-70
2023/05/19 02:14:40;;;;;;;14.10;7.67;;;7.70;99.90;;;;;;4966110;28;19926;-70
2023/05/19 02:17:07;;;;;;;17.13;7.37;;;7.70;99.90;;;;;;4974721;28;20382;-70
2023/05/19 02:19:41;;;;;;;17.97;7.57;;;7.70;99.90;;;;;;4942330;28;20043;-70
2023/05/19 02:22:07;;;;;;;21.07;7.77;;;7.70;99.90;;;;;;4958522;28;20535;-70
2023/05/19 02:24:32;;;;;;;18.07;7.40;;;7.70;99.90;;;;;;4949216;28;20057;-70
2023/05/19 02:26:59;;;;;;;17.80;8.30;;;7.70;99.90;;;;;;4939949;28;20113;-70
2023/05/19 02:29:25;;;;;;;19.97;8.17;;;7.70;99.90;;;;;;4975263;28;20294;-70
2023/05/19 02:31:51;;;;;;;14.97;7.90;;;7.70;99.90;;;;;;4941784;28;20094;-70
2023/05/19 02:34:16;;;;;;;18.17;7.87;;;7.60;99.90;;;;;;4934828;29;20519;-70
2023/05/19 02:36:42;;;;;;;15.17;7.57;;;7.60;99.90;;;;;;4928198;28;20065;-69
2023/05/19 02:39:10;;;;;;;17.63;7.73;;;7.60;99.90;;;;;;4976245;28;20138;-70
2023/05/19 02:41:36;;;;;;;17.80;8.07;;;7.60;99.90;;;;;;4948424;28;20070;-70
2023/05/19 02:44:02;;;;;;;17.10;7.87;;;7.60;99.90;;;;;;4951154;28;20118;-70
2023/05/19 02:46:27;;;;;;;16.73;7.57;;;7.60;99.90;;;;;;4957812;28;20474;-70
2023/05/19 02:48:53;;;;;;;18.33;8.20;;;7.60;99.90;;;;;;4954442;28;20034;-70
2023/05/19 02:51:18;;;;;;;17.70;7.87;;;7.60;99.90;;;;;;4966496;28;20035;-70
2023/05/19 02:53:44;;;;;;;14.90;7.13;;;7.50;99.90;;;;;;4971359;28;20093;-70
2023/05/19 02:56:10;;;;;;;19.50;7.97;;;7.50;99.90;;;;;;4963422;28;20058;-70
2023/05/19 02:58:36;;;;;;;18.63;8.17;;;7.50;99.90;;;;;;4956565;28;20054;-70
2023/05/19 03:01:01;;;;;;;17.97;7.83;;;7.50;99.90;;;;;;4958429;28;20054;-70
2023/05/19 03:03:27;;;;;;;13.47;7.47;;;7.50;99.90;;;;;;4965144;28;20526;-70
2023/05/19 03:05:53;;;;;;;16.83;8.53;;;7.40;99.90;;;;;;4961238;28;20038;-70
2023/05/19 03:08:19;;;;;;;20.37;8.33;;;7.40;99.90;;;;;;4954452;28;20093;-70
2023/05/19 03:10:45;;;;;;;15.70;7.97;;;7.40;99.90;;;;;;4933978;28;20047;-70
2023/05/19 03:13:11;;;;;;;14.30;7.80;;;7.40;99.90;;;;;;4939390;28;20051;-71
2023/05/19 03:15:37;;;;;;;21.57;8.20;;;7.40;99.90;;;;;;4927463;28;20059;-70
2023/05/19 03:18:03;;;;;;;19.40;8.03;;;7.40;99.90;;;;;;4939729;28;20124;-70
2023/05/19 03:20:32;;;;;;;19.20;9.23;;;7.40;99.90;;;;;;4957452;28;20129;-70
2023/05/19 03:22:57;;;;;;;20.07;9.10;;;7.40;99.90;;;;;;4951635;28;20061;-70
2023/05/19 03:25:23;;;;;;;15.87;7.83;;;7.40;99.90;;;;;;4940641;28;20046;-70
2023/05/19 03:27:49;;;;;;;16.40;8.33;;;7.40;99.90;;;;;;4955338;28;20051;-70
2023/05/19 03:30:15;;;;;;;22.27;9.30;;;7.30;99.90;;;;;;4932400;28;20130;-70
2023/05/19 03:32:40;;;;;;;23.83;9.70;;;7.30;99.90;;;;;;4940221;28;20121;-70
2023/05/19 03:35:06;;;;;;;20.23;9.23;;;7.40;99.90;;;;;;4955581;28;20043;-70
2023/05/19 03:37:32;;;;;;;17.87;8.97;;;7.30;99.90;;;;;;4939066;28;20074;-70
2023/05/19 03:39:58;;;;;;;19.53;8.77;;;7.40;99.90;;;;;;4937309;28;20047;-70
2023/05/19 03:42:24;;;;;;;19.57;9.37;;;7.40;99.90;;;;;;4980599;28;20043;-70
2023/05/19 03:44:50;;;;;;;23.30;9.23;;;7.40;99.90;;;;;;4942521;28;20061;-70
2023/05/19 03:47:16;;;;;;;21.37;9.53;;;7.40;99.90;;;;;;4967452;28;20674;-70
2023/05/19 03:49:42;;;;;;;21.23;9.73;;;7.40;99.90;;;;;;4978615;28;20400;-69
2023/05/19 03:52:08;;;;;;;17.43;9.87;;;7.40;99.90;;;;;;4933410;28;20053;-69
2023/05/19 03:54:34;;;;;;;21.33;9.43;;;7.40;99.90;;;;;;4950224;28;20730;-70
2023/05/19 03:57:01;;;;;;;20.57;9.37;;;7.30;99.90;;;;;;4974260;28;20085;-69
2023/05/19 03:59:27;;;;;;;15.97;8.67;;;7.30;99.90;;;;;;4975878;28;20081;-70
2023/05/19 04:01:52;;;;;;;16.93;9.27;;;7.30;99.90;;;;;;4962460;28;20054;-70
2023/05/19 04:04:18;;;;;;;18.57;8.77;;;7.30;99.90;;;;;;4957684;28;20043;-70
2023/05/19 04:06:44;;;;;;;21.60;9.17;;;7.40;99.90;;;;;;4986956;28;20049;-70
2023/05/19 04:09:12;;;;;;;22.43;10.27;;;7.40;99.90;;;;;;4963593;28;20550;-70
2023/05/19 04:11:39;;;;;;;16.50;8.40;;;7.40;99.90;;;;;;4953713;28;20051;-69
2023/05/19 04:14:05;;;;;;;22.00;9.60;;;7.40;99.90;;;;;;4957347;28;20051;-70
2023/05/19 04:16:31;;;;;;;18.83;9.53;;;7.40;99.90;;;;;;4955317;28;20038;-70
2023/05/19 04:18:56;;;;;;;18.37;9.43;;;7.40;99.90;;;;;;4963170;28;20073;-70
2023/05/19 04:21:22;;;;;;;21.07;9.03;;;7.50;99.90;;;;;;4945465;28;20130;-70
2023/05/19 04:23:48;;;;;;;21.87;9.53;;;7.40;99.90;;;;;;4953225;28;20145;-70
2023/05/19 04:26:14;;;;;;;20.73;8.97;;;7.40;99.90;;;;;;4936615;28;20031;-70
2023/05/19 04:28:43;;;;;;;20.13;10.00;;;7.50;99.90;;;;;;4981095;28;20063;-70
2023/05/19 04:31:11;;;;;;;17.30;9.27;;;7.50;99.90;;;;;;4959677;28;20039;-70
2023/05/19 04:33:37;;;;;;;22.17;10.27;;;7.50;99.90;;;;;;4963125;28;20054;-70
2023/05/19 04:36:04;;;;;;;17.83;9.60;;;7.50;99.90;;;;;;4953907;28;20061;-70
2023/05/19 04:38:30;;;;;;;22.13;9.43;;;7.60;99.90;;;;;;4937449;28;20048;-70
2023/05/19 04:40:56;;;;;;;18.13;9.27;;;7.70;99.90;;;;;;4952610;28;20164;-70
2023/05/19 04:43:21;;;;;;;20.83;9.50;;;7.70;99.90;;;;;;4932344;28;20050;-70
2023/05/19 04:45:50;;;;;;;18.40;9.00;;;7.70;99.90;;;;;;4925389;28;20043;-69
2023/05/19 04:48:15;;;;;;;16.97;8.43;;;7.70;99.90;;;;;;4938795;28;20050;-70
2023/05/19 04:50:41;;;;;;;17.53;8.93;;;7.80;99.90;;;;;;4952499;28;20038;-70
2023/05/19 04:53:08;;;;;;;20.73;9.53;;;7.90;99.90;;;;;;4955015;28;20430;-69
2023/05/19 04:55:34;;;;;;;18.70;9.50;;;7.90;99.90;;;;;;4920142;28;20447;-70
2023/05/19 04:58:00;;;;;;;21.07;9.10;;;8.00;99.90;;;;;;4964762;28;20070;-71
2023/05/19 05:00:25;;;;;;;16.30;8.70;;;8.10;99.90;;;;;;4958809;28;20051;-70
2023/05/19 05:02:51;;;;;;;14.63;8.53;;;8.10;99.90;;;;;;4959894;28;20056;-70
2023/05/19 05:05:17;;;;;;;15.47;9.20;;;8.10;99.90;;;;;;4943914;28;20054;-70
2023/05/19 05:07:42;;;;;;;14.57;8.70;;;8.20;99.90;;;;;;4958995;28;20035;-70
2023/05/19 05:10:09;;;;;;;16.53;8.43;;;8.30;99.90;;;;;;4943814;28;20035;-70
2023/05/19 05:12:35;;;;;;;20.70;9.07;;;8.30;99.90;;;;;;4939392;29;20047;-69
2023/05/19 05:15:01;;;;;;;19.03;9.13;;;8.40;99.90;;;;;;4957254;28;20056;-70
2023/05/19 05:17:27;;;;;;;17.10;8.70;;;8.40;99.90;;;;;;4952496;28;20047;-70
2023/05/19 05:19:53;;;;;;;17.80;9.00;;;8.50;99.90;;;;;;4982474;28;20058;-70
2023/05/19 05:22:19;;;;;;;19.47;9.17;;;8.50;99.90;;;;;;4955609;28;20502;-70
2023/05/19 05:24:45;;;;;;;16.83;9.00;;;8.60;99.90;;;;;;4959321;28;20043;-70
2023/05/19 05:27:10;;;;;;;17.93;9.40;;;8.70;99.90;;;;;;4942446;28;20130;-70
2023/05/19 05:29:36;;;;;;;18.43;9.53;;;8.80;99.90;;;;;;4943259;28;20063;-70
2023/05/19 05:32:02;;;;;;;20.83;10.00;;;8.80;99.90;;;;;;4927432;28;20519;-70
2023/05/19 05:34:28;;;;;;;16.77;8.50;;;8.90;99.90;;;;;;4972808;28;20039;-70
2023/05/19 05:36:54;;;;;;;15.53;9.03;;;9.10;99.90;;;;;;4984003;28;20050;-70
2023/05/19 05:39:19;;;;;;;13.40;8.93;;;9.20;99.90;;;;;;4949640;28;20042;-71
2023/05/19 05:41:46;;;;;;;15.80;8.37;;;9.20;99.90;;;;;;4940523;28;20384;-70
2023/05/19 05:44:11;;;;;;;17.50;8.53;;;9.40;99.90;;;;;;4991289;28;20043;-70
2023/05/19 05:46:37;;;;;;;16.20;9.13;;;9.50;99.90;;;;;;4953260;28;20054;-71
2023/05/19 05:49:03;;;;;;;18.40;9.27;;;9.50;99.90;;;;;;4938965;28;20066;-71
2023/05/19 05:51:31;;;;;;;16.10;8.63;;;9.60;99.90;;;;;;4933734;28;20043;-71
2023/05/19 05:53:58;;;;;;;15.77;9.10;;;9.80;99.90;;;;;;4943973;28;20180;-71
2023/05/19 05:56:25;;;;;;;15.63;8.70;;;10.00;99.90;;;;;;4956391;28;20042;-71
2023/05/19 05:58:51;;;;;;;13.90;8.50;;;10.10;99.90;;;;;;4975831;28;20066;-71
2023/05/19 06:01:17;;;;;;;15.77;8.43;;;10.30;99.90;;;;;;4958363;28;20053;-71
2023/05/19 06:03:45;;;;;;;15.87;8.63;;;10.30;99.90;;;;;;4955953;28;20054;-71
2023/05/19 06:06:12;;;;;;;14.37;8.33;;;10.40;99.90;;;;;;4940695;28;20450;-71
2023/05/19 06:08:38;;;;;;;15.13;8.73;;;10.50;99.90;;;;;;4953330;28;20051;-70
2023/05/19 06:11:07;;;;;;;14.37;7.97;;;10.70;99.90;;;;;;4971496;28;20058;-70
2023/05/19 06:13:34;;;;;;;13.83;7.70;;;10.80;99.90;;;;;;4956586;28;20051;-71
2023/05/19 06:16:01;;;;;;;17.77;8.17;;;11.00;99.90;;;;;;4937577;28;20043;-71
2023/05/19 06:18:27;;;;;;;19.30;8.20;;;11.20;99.90;;;;;;4971154;28;20099;-72
2023/05/19 06:20:53;;;;;;;10.83;7.67;;;11.40;99.90;;;;;;4941287;28;20133;-73
2023/05/19 06:23:18;;;;;;;16.80;8.27;;;11.50;99.90;;;;;;4975700;28;20046;-72
2023/05/19 06:25:44;;;;;;;15.43;7.73;;;11.60;99.90;;;;;;4955595;28;20125;-72
2023/05/19 06:28:10;;;;;;;14.23;7.47;;;11.80;99.90;;;;;;4958160;28;20078;-71
2023/05/19 06:30:36;;;;;;;12.20;6.60;;;11.90;99.90;;;;;;4957691;28;20090;-70
2023/05/19 06:33:02;;;;;;;12.23;7.30;;;12.10;99.90;;;;;;4956980;28;20055;-70
2023/05/19 06:35:29;;;;;;;14.40;6.67;;;12.10;99.90;;;;;;4957712;28;20054;-70
2023/05/19 06:37:55;;;;;;;9.40;5.70;;;12.20;99.90;;;;;;4957099;28;20065;-71
2023/05/19 06:40:24;;;;;;;8.70;5.73;;;12.30;99.90;;;;;;4972764;28;20086;-70
2023/05/19 06:42:49;;;;;;;11.90;5.60;;;12.40;99.90;;;;;;4951088;28;20920;-71
2023/05/19 06:45:15;;;;;;;10.57;5.37;;;12.60;99.90;;;;;;4949007;28;20047;-70
2023/05/19 06:47:41;;;;;;;10.17;4.97;;;12.80;99.90;;;;;;4950025;28;20079;-70
2023/05/19 06:50:08;;;;;;;10.95;5.07;;;13.00;99.90;;;;;;4954658;28;20051;-70
2023/05/19 06:52:34;;;;;;;10.73;4.20;;;13.20;99.90;;;;;;4938477;28;20562;-71
2023/05/19 06:55:00;;;;;;;8.67;4.20;;;13.30;99.90;;;;;;4952061;28;20074;-71
2023/05/19 06:57:26;;;;;;;9.98;3.92;;;13.40;99.90;;;;;;4974138;28;20515;-71
2023/05/19 06:59:51;;;;;;;8.60;3.95;;;13.50;99.90;;;;;;4937226;28;20065;-71
2023/05/19 07:02:17;;;;;;;9.68;3.88;;;13.60;99.90;;;;;;4957250;28;20085;-71
2023/05/19 07:04:43;;;;;;;9.38;4.30;;;13.60;99.90;;;;;;4934099;28;20039;-71
2023/05/19 07:07:08;;;;;;;7.78;4.28;;;13.60;99.90;;;;;;4938800;28;20075;-71
2023/05/19 07:09:34;;;;;;;9.23;4.15;;;13.70;99.90;;;;;;4969815;28;20046;-71
2023/05/19 07:12:00;;;;;;;8.60;3.75;;;13.90;99.90;;;;;;4953047;28;20050;-71
2023/05/19 07:14:26;;;;;;;8.27;3.45;;;14.10;99.90;;;;;;4946978;28;20043;-71
2023/05/19 07:16:52;;;;;;;7.30;3.80;;;14.10;99.90;;;;;;4938161;28;20051;-71
2023/05/19 07:19:18;;;;;;;7.82;3.80;;;14.20;99.90;;;;;;4952610;28;20046;-71
2023/05/19 07:21:47;;;;;;;9.07;4.13;;;14.30;99.90;;;;;;4951248;28;20137;-71
2023/05/19 07:24:13;;;;;;;6.32;3.60;;;14.40;99.90;;;;;;4969965;28;20050;-71
2023/05/19 07:26:39;;;;;;;10.60;4.00;;;14.50;99.90;;;;;;4922591;28;20053;-71
2023/05/19 07:29:05;;;;;;;9.73;4.10;;;14.60;99.90;;;;;;4953934;28;20065;-71
2023/05/19 07:31:31;;;;;;;7.65;4.05;;;14.60;99.90;;;;;;4974275;28;20074;-71
2023/05/19 07:33:57;;;;;;;8.50;4.10;;;14.60;99.90;;;;;;4957016;28;20054;-71
2023/05/19 07:36:23;;;;;;;8.15;4.07;;;14.70;99.90;;;;;;4954674;28;20126;-71
2023/05/19 07:38:49;;;;;;;7.63;3.63;;;14.90;99.90;;;;;;4954993;28;20074;-71
2023/05/19 07:41:15;;;;;;;7.20;4.03;;;15.00;99.90;;;;;;4938909;28;20039;-71
2023/05/19 07:43:41;;;;;;;6.50;3.80;;;15.10;99.90;;;;;;4949862;28;20505;-71
2023/05/19 07:46:07;;;;;;;7.22;3.95;;;15.10;99.90;;;;;;4954992;28;20058;-71
2023/05/19 07:48:33;;;;;;;6.20;3.65;;;15.10;99.90;;;;;;4970477;28;20043;-71
2023/05/19 07:50:59;;;;;;;9.05;3.88;;;15.30;99.90;;;;;;4938177;28;20051;-71
2023/05/19 07:53:24;;;;;;;7.20;3.40;;;15.30;99.90;;;;;;4935943;28;20079;-71
2023/05/19 07:55:50;;;;;;;6.60;3.58;;;15.50;99.90;;;;;;4971030;28;20050;-71
2023/05/19 07:58:16;;;;;;;8.13;3.58;;;15.50;99.90;;;;;;4954445;28;20490;-71
2023/05/19 08:00:42;;;;;;;7.65;3.60;;;15.50;99.90;;;;;;4921930;28;20054;-71
2023/05/19 08:03:08;;;;;;;8.40;3.63;;;15.50;99.90;;;;;;4973325;28;20194;-71
2023/05/19 08:05:35;;;;;;;5.57;3.35;;;15.50;99.90;;;;;;4923017;28;20109;-71
2023/05/19 08:08:01;;;;;;;6.00;3.08;;;15.60;99.90;;;;;;4955082;28;20041;-71
2023/05/19 08:10:27;;;;;;;4.88;3.00;;;15.80;99.90;;;;;;4956355;28;20035;-71
2023/05/19 08:12:53;;;;;;;8.07;3.70;;;15.70;99.90;;;;;;4952541;28;20054;-71
2023/05/19 08:15:19;;;;;;;6.20;3.17;;;15.60;99.90;;;;;;4951897;28;20086;-70
2023/05/19 08:17:45;;;;;;;7.32;3.38;;;15.60;99.90;;;;;;4948132;28;20043;-71
2023/05/19 08:20:11;;;;;;;6.63;3.10;;;15.40;99.90;;;;;;4971032;28;20047;-71
2023/05/19 08:22:37;;;;;;;7.05;3.60;;;15.40;99.90;;;;;;4963920;28;20051;-71
2023/05/19 08:25:04;;;;;;;7.85;3.42;;;15.40;99.90;;;;;;4968197;28;20040;-71
2023/05/19 08:27:29;;;;;;;7.95;3.10;;;15.60;99.90;;;;;;4930882;28;20043;-71
2023/05/19 08:29:56;;;;;;;6.78;3.45;;;15.80;99.90;;;;;;4951809;28;20139;-71
2023/05/19 08:32:22;;;;;;;8.40;3.63;;;15.80;99.90;;;;;;4969452;28;20046;-71
2023/05/19 08:34:47;;;;;;;7.95;3.70;;;15.70;99.90;;;;;;4971309;28;20046;-71
2023/05/19 08:37:13;;;;;;;12.88;4.50;;;15.80;99.90;;;;;;4965962;28;20050;-71
2023/05/19 08:39:39;;;;;;;7.15;3.53;;;16.10;99.90;;;;;;4937379;28;20074;-71
2023/05/19 08:42:06;;;;;;;6.53;3.17;;;16.10;95.50;;;;;;4926591;28;20494;-71
2023/05/19 08:44:33;;;;;;;8.98;3.90;;;16.10;95.10;;;;;;4972895;28;20077;-71
2023/05/19 08:47:11;;;;;;;6.00;3.05;;;16.20;93.10;;;;;;4968808;28;20050;-71
2023/05/19 08:49:44;;;;;;;6.22;3.03;;;16.40;94.00;;;;;;4975944;28;20058;-70
2023/05/19 08:52:18;;;;;;;6.95;3.60;;;16.40;91.90;;;;;;4951845;28;20135;-72
2023/05/19 08:54:54;;;;;;;7.00;3.30;;;16.40;90.50;;;;;;4973461;28;20732;-71
2023/05/19 08:57:23;;;;;;;8.45;4.00;;;16.60;88.50;;;;;;4953772;28;20443;-71
2023/05/19 08:59:51;;;;;;;5.80;3.30;;;16.50;83.40;;;;;;4936224;28;20070;-72
2023/05/19 09:02:18;;;;;;;6.53;3.42;;;16.50;85.90;;;;;;4953465;28;20913;-71
2023/05/19 09:04:46;;;;;;;7.50;3.65;;;16.40;83.50;;;;;;4934526;28;20365;-71
2023/05/19 09:07:15;;;;;;;5.78;3.40;;;16.30;84.80;;;;;;4973697;28;20043;-71
2023/05/19 09:09:42;;;;;;;6.28;3.22;;;16.40;84.70;;;;;;4946869;28;20061;-70
2023/05/19 09:12:12;;;;;;;5.95;2.97;;;16.40;82.30;;;;;;4968800;28;20065;-71
2023/05/19 09:14:37;;;;;;;8.07;3.30;;;16.50;81.40;;;;;;4953770;28;20074;-71
2023/05/19 09:17:03;;;;;;;7.68;3.70;;;16.60;88.50;;;;;;4968726;28;20050;-71
2023/05/19 09:19:29;;;;;;;6.85;3.90;;;16.90;86.00;;;;;;4952305;28;20054;-71
2023/05/19 09:22:05;;;;;;;8.63;4.03;;;17.20;83.30;;;;;;4970326;28;20035;-71
2023/05/19 09:24:32;;;;;;;6.35;3.42;;;17.20;79.70;;;;;;4949976;28;20043;-71
2023/05/19 09:26:58;;;;;;;4.32;3.10;;;17.30;79.20;;;;;;4965405;28;20153;-72
2023/05/19 09:29:27;;;;;;;5.50;3.58;;;17.30;77.20;;;;;;4941849;28;20072;-71
2023/05/19 09:31:59;;;;;;;6.30;3.47;;;17.20;76.50;;;;;;4975686;28;20521;-70
2023/05/19 09:34:25;;;;;;;6.13;3.90;;;17.20;75.70;;;;;;4973478;28;20617;-70
2023/05/19 09:36:52;;;;;;;9.95;3.97;;;17.40;80.90;;;;;;4940729;28;20039;-70
2023/05/19 09:39:20;;;;;;;5.60;3.40;;;17.60;79.60;;;;;;4957618;28;20441;-70
2023/05/19 09:41:46;;;;;;;6.65;3.28;;;17.80;75.80;;;;;;4956226;28;20043;-71
2023/05/19 09:44:29;;;;;;;7.35;3.63;;;18.00;74.70;;;;;;4959714;28;20038;-69
2023/05/19 09:46:55;;;;;;;8.20;3.85;;;18.00;73.30;;;;;;4939949;28;20053;-70
2023/05/19 09:49:23;;;;;;;8.63;3.53;;;17.80;73.80;;;;;;4961809;28;20053;-71
2023/05/19 09:51:56;;;;;;;5.82;3.50;;;17.90;75.20;;;;;;4962022;28;20042;-70
2023/05/19 09:54:23;;;;;;;11.98;3.40;;;18.00;72.30;;;;;;4954102;28;20058;-70
2023/05/19 09:57:02;;;;;;;5.90;3.60;;;17.90;72.80;;;;;;4954024;28;20050;-71
2023/05/19 09:59:29;;;;;;;10.63;4.32;;;17.90;71.60;;;;;;4968351;28;20106;-70
2023/05/19 10:01:59;;;;;;;7.18;3.80;;;17.70;74.00;;;;;;4980602;28;20049;-70
2023/05/19 10:04:27;;;;;;;6.45;3.40;;;17.80;73.00;;;;;;4954485;28;20078;-70
2023/05/19 10:06:54;;;;;;;9.00;3.78;;;17.90;72.50;;;;;;4957933;28;20062;-71
2023/05/19 10:09:24;;;;;;;9.23;3.47;;;18.10;72.70;;;;;;4974236;28;20057;-70
2023/05/19 10:11:55;;;;;;;5.85;3.22;;;18.20;72.70;;;;;;4982070;28;20076;-70
2023/05/19 10:14:25;;;;;;;7.05;3.47;;;18.20;70.20;;;;;;4957656;28;20046;-70
2023/05/19 10:16:53;;;;;;;6.78;3.55;;;18.20;71.50;;;;;;4937756;28;20048;-70
2023/05/19 10:19:24;;;;;;;5.72;3.42;;;18.30;71.10;;;;;;4939783;28;20066;-70
2023/05/19 10:21:50;;;;;;;6.85;3.90;;;18.50;71.40;;;;;;4984529;28;20039;-70
2023/05/19 10:24:17;;;;;;;6.80;3.53;;;18.50;69.40;;;;;;4946950;28;20065;-71
2023/05/19 10:26:53;;;;;;;7.90;3.67;;;18.50;69.10;;;;;;4976142;28;20046;-70
2023/05/19 10:29:35;;;;;;;5.05;3.35;;;18.50;69.40;;;;;;4978588;28;20057;-70
2023/05/19 10:32:07;;;;;;;7.47;3.45;;;18.40;68.90;;;;;;4984527;28;20161;-70
2023/05/19 10:34:39;;;;;;;8.82;3.33;;;18.20;69.80;;;;;;4942932;28;20042;-69
2023/05/19 10:37:25;;;;;;;10.10;5.07;;;18.10;70.40;;;;;;4956841;28;20414;-70
2023/05/19 10:39:52;;;;;;;4.35;3.40;;;18.00;69.70;;;;;;4955135;28;20230;-70
2023/05/19 10:42:53;;;;;;;6.80;3.40;;;18.00;70.30;;;;;;4954614;28;20641;-70
2023/05/19 10:45:22;;;;;;;4.63;3.28;;;18.10;70.80;;;;;;4943136;28;20110;-72
2023/05/19 10:47:53;;;;;;;6.95;3.30;;;18.30;71.20;;;;;;4936843;28;20058;-68
2023/05/19 10:50:19;;;;;;;10.38;4.13;;;18.40;71.30;;;;;;4948889;28;20058;-71
2023/05/19 10:52:54;;;;;;;6.22;4.00;;;18.60;71.10;;;;;;4970011;28;20073;-68
2023/05/19 10:55:48;;;;;;;7.90;3.78;;;18.70;70.10;;;;;;4943465;28;20134;-69
2023/05/19 10:58:42;;;;;;;8.93;3.70;;;18.70;69.10;;;;;;4955649;23;20074;-82
2023/05/19 11:01:12;;;;;;;8.65;3.70;;;18.80;68.40;;;;;;4952277;28;20110;-82
2023/05/19 11:03:46;;;;;;;5.97;3.53;;;19.00;69.20;;;;;;4964907;28;20182;-83
2023/05/19 11:06:19;;;;;;;8.75;3.40;;;19.00;68.70;;;;;;4953908;28;20050;-83
2023/05/19 11:08:46;;;;;;;7.88;3.85;;;19.20;70.30;;;;;;4980148;23;20054;-84
2023/05/19 11:11:16;;;;;;;6.28;3.40;;;19.50;69.20;;;;;;4960217;28;20050;-83
2023/05/19 11:13:55;;;;;;;6.57;3.30;;;19.60;67.20;;;;;;4976274;28;20042;-83
2023/05/19 11:16:28;;;;;;;8.43;3.35;;;19.70;67.20;;;;;;4977827;28;20105;-83
2023/05/19 11:18:57;;;;;;;6.40;3.50;;;19.60;66.30;;;;;;4973099;28;20410;-84
2023/05/19 11:21:23;;;;;;;10.18;3.72;;;19.60;68.00;;;;;;4987488;28;20115;-82
2023/05/19 11:23:50;;;;;;;6.18;2.97;;;19.50;67.60;;;;;;4945533;28;20421;-83
2023/05/19 11:26:39;;;;;;;8.20;3.75;;;19.60;67.20;;;;;;4974204;28;20034;-84
2023/05/19 11:29:05;;;;;;;8.05;3.28;;;19.70;66.70;;;;;;4995385;28;20455;-84
2023/05/19 11:31:32;;;;;;;7.57;3.03;;;19.60;65.90;;;;;;4978600;28;20037;-83
2023/05/19 11:33:58;;;;;;;6.03;3.47;;;19.80;66.00;;;;;;4982215;28;20398;-83
2023/05/19 11:36:24;;;;;;;5.53;3.08;;;20.00;65.40;;;;;;4949247;28;20103;-83
2023/05/19 11:38:50;;;;;;;6.50;3.20;;;20.20;66.30;;;;;;4969219;28;20536;-83
2023/05/19 11:41:16;;;;;;;7.85;2.95;;;20.40;65.40;;;;;;4973162;28;20054;-83
2023/05/19 11:43:42;;;;;;;6.03;3.15;;;20.50;63.80;;;;;;4978178;28;20046;-83
2023/05/19 11:46:08;;;;;;;6.65;3.05;;;20.60;63.70;;;;;;4994015;28;20509;-83
2023/05/19 11:48:35;;;;;;;6.20;2.65;;;20.60;63.40;;;;;;4959631;28;20132;-84
2023/05/19 11:51:01;;;;;;;5.90;3.08;;;20.50;62.50;;;;;;4976103;28;20577;-83
2023/05/19 11:53:31;;;;;;;6.22;3.47;;;20.20;62.20;;;;;;4974620;28;20196;-83
2023/05/19 11:56:02;;;;;;;8.40;3.75;;;20.00;62.20;;;;;;4970715;28;20046;-82
2023/05/19 11:58:29;;;;;;;9.93;3.40;;;19.60;61.50;;;;;;4993202;28;20493;-83
2023/05/19 12:00:55;;;;;;;8.70;3.60;;;19.50;62.40;;;;;;4949034;28;20039;-83
2023/05/19 12:03:26;;;;;;;9.45;3.75;;;19.40;63.20;;;;;;4972626;28;20057;-84
2023/05/19 12:05:53;;;;;;;6.65;3.17;;;19.50;63.60;;;;;;4998829;28;20042;-83
2023/05/19 12:08:18;;;;;;;6.22;3.60;;;19.60;64.00;;;;;;4980037;28;20050;-83
2023/05/19 12:10:50;;;;;;;6.55;3.58;;;19.70;63.90;;;;;;4998795;28;20047;-83
2023/05/19 12:13:16;;;;;;;4.28;3.00;;;19.90;63.30;;;;;;4996893;28;20038;-82
2023/05/19 12:15:42;;;;;;;7.07;3.47;;;20.10;63.20;;;;;;4949411;28;20505;-82
2023/05/19 12:18:08;;;;;;;11.35;3.67;;;19.90;62.10;;;;;;4951633;28;20046;-83
2023/05/19 12:20:39;;;;;;;6.95;3.33;;;19.80;62.20;;;;;;4990139;28;20498;-83
2023/05/19 12:23:05;;;;;;;5.05;2.85;;;19.60;61.70;;;;;;4972421;28;20075;-83
2023/05/19 12:25:31;;;;;;;5.53;3.15;;;19.50;61.80;;;;;;4970019;28;20043;-83
2023/05/19 12:28:03;;;;;;;6.35;2.97;;;19.60;61.90;;;;;;4976162;28;20097;-83
2023/05/19 12:30:30;;;;;;;7.07;3.33;;;19.60;61.90;;;;;;4965197;28;20498;-84
2023/05/19 12:32:56;;;;;;;7.35;2.97;;;19.60;63.20;;;;;;4970083;28;20462;-82
2023/05/19 12:35:27;;;;;;;7.38;3.00;;;19.70;63.20;;;;;;4991800;28;20043;-83
2023/05/19 12:37:53;;;;;;;9.05;3.20;;;19.50;62.50;;;;;;4966914;28;20050;-82
2023/05/19 12:40:19;;;;;;;5.43;3.20;;;19.40;62.60;;;;;;4957951;28;20065;-82
2023/05/19 12:42:52;;;;;;;6.35;2.97;;;19.30;62.10;;;;;;4993703;28;20108;-84
2023/05/19 12:45:21;;;;;;;5.07;3.25;;;19.30;61.90;;;;;;4976386;28;20338;-84
2023/05/19 12:47:48;;;;;;;7.15;3.30;;;19.10;62.40;;;;;;4980649;28;20042;-83
2023/05/19 12:50:13;;;;;;;5.93;3.28;;;19.10;63.30;;;;;;4981342;28;20437;-84